sensor_id;sensor_type;location;lat;lon;timestamp;P1;durP1;ratioP1;P2;durP2;ratioP2
56136;SDS011;42008;52.934;5.884;2022-11-18T00:01:22;15.33;;;5.27;;
56136;SDS011;42008;52.934;5.884;2022-11-18T00:03:48;12.23;;;5.00;;
56136;SDS011;42008;52.934;5.884;2022-11-18T00:06:15;12.83;;;5.00;;
56136;SDS011;42008;52.934;5.884;2022-11-18T00:08:42;12.83;;;5.07;;
56136;SDS011;42008;52.934;5.884;2022-11-18T00:11:09;10.93;;;5.50;;
56136;SDS011;42008;52.934;5.884;2022-11-18T00:13:36;11.07;;;5.20;;
56136;SDS011;42008;52.934;5.884;2022-11-18T00:16:21;11.10;;;5.30;;
56136;SDS011;42008;52.934;5.884;2022-11-18T00:18:47;14.30;;;6.03;;
56136;SDS011;42008;52.934;5.884;2022-11-18T00:21:13;15.10;;;5.43;;
56136;SDS011;42008;52.934;5.884;2022-11-18T00:23:39;11.63;;;5.23;;
56136;SDS011;42008;52.934;5.884;2022-11-18T00:26:09;10.47;;;5.73;;
56136;SDS011;42008;52.934;5.884;2022-11-18T00:28:37;11.63;;;6.35;;
56136;SDS011;42008;52.934;5.884;2022-11-18T00:31:04;13.80;;;6.43;;
56136;SDS011;42008;52.934;5.884;2022-11-18T00:33:32;15.40;;;6.30;;
56136;SDS011;42008;52.934;5.884;2022-11-18T00:35:58;14.40;;;6.97;;
56136;SDS011;42008;52.934;5.884;2022-11-18T00:38:24;18.40;;;7.47;;
56136;SDS011;42008;52.934;5.884;2022-11-18T00:41:06;17.97;;;6.93;;
56136;SDS011;42008;52.934;5.884;2022-11-18T00:43:34;18.10;;;7.53;;
56136;SDS011;42008;52.934;5.884;2022-11-18T00:46:00;14.33;;;7.77;;
56136;SDS011;42008;52.934;5.884;2022-11-18T00:48:26;18.87;;;7.83;;
56136;SDS011;42008;52.934;5.884;2022-11-18T00:50:52;15.23;;;8.00;;
56136;SDS011;42008;52.934;5.884;2022-11-18T00:53:20;15.73;;;7.87;;
56136;SDS011;42008;52.934;5.884;2022-11-18T00:55:47;16.57;;;8.00;;
56136;SDS011;42008;52.934;5.884;2022-11-18T00:58:13;12.93;;;8.57;;
56136;SDS011;42008;52.934;5.884;2022-11-18T01:00:46;18.00;;;8.77;;
56136;SDS011;42008;52.934;5.884;2022-11-18T01:03:15;16.17;;;9.63;;
56136;SDS011;42008;52.934;5.884;2022-11-18T01:05:40;21.43;;;10.50;;
56136;SDS011;42008;52.934;5.884;2022-11-18T01:08:07;17.63;;;10.87;;
56136;SDS011;42008;52.934;5.884;2022-11-18T01:10:34;19.97;;;12.00;;
56136;SDS011;42008;52.934;5.884;2022-11-18T01:13:01;21.73;;;11.87;;
56136;SDS011;42008;52.934;5.884;2022-11-18T01:15:55;23.87;;;13.10;;
56136;SDS011;42008;52.934;5.884;2022-11-18T01:18:23;20.60;;;14.13;;
56136;SDS011;42008;52.934;5.884;2022-11-18T01:20:51;26.00;;;14.20;;
56136;SDS011;42008;52.934;5.884;2022-11-18T01:23:17;21.23;;;15.73;;
56136;SDS011;42008;52.934;5.884;2022-11-18T01:25:44;21.90;;;16.33;;
56136;SDS011;42008;52.934;5.884;2022-11-18T01:28:12;30.50;;;17.27;;
56136;SDS011;42008;52.934;5.884;2022-11-18T01:30:38;22.47;;;16.10;;
56136;SDS011;42008;52.934;5.884;2022-11-18T01:33:05;25.00;;;17.33;;
56136;SDS011;42008;52.934;5.884;2022-11-18T01:35:35;21.80;;;16.73;;
56136;SDS011;42008;52.934;5.884;2022-11-18T01:38:05;25.53;;;18.33;;
56136;SDS011;42008;52.934;5.884;2022-11-18T01:40:32;30.03;;;19.00;;
56136;SDS011;42008;52.934;5.884;2022-11-18T01:42:58;28.20;;;19.47;;
56136;SDS011;42008;52.934;5.884;2022-11-18T01:45:28;24.07;;;19.27;;
56136;SDS011;42008;52.934;5.884;2022-11-18T01:48:10;30.77;;;19.27;;
56136;SDS011;42008;52.934;5.884;2022-11-18T01:50:46;23.83;;;17.90;;
56136;SDS011;42008;52.934;5.884;2022-11-18T01:53:18;27.80;;;19.27;;
56136;SDS011;42008;52.934;5.884;2022-11-18T01:55:47;25.67;;;19.63;;
56136;SDS011;42008;52.934;5.884;2022-11-18T01:58:17;31.40;;;20.27;;
56136;SDS011;42008;52.934;5.884;2022-11-18T02:00:51;26.67;;;20.33;;
56136;SDS011;42008;52.934;5.884;2022-11-18T02:03:17;27.07;;;20.50;;
56136;SDS011;42008;52.934;5.884;2022-11-18T02:05:44;30.43;;;22.50;;
56136;SDS011;42008;52.934;5.884;2022-11-18T02:08:12;31.00;;;21.60;;
56136;SDS011;42008;52.934;5.884;2022-11-18T02:10:38;29.10;;;23.03;;
56136;SDS011;42008;52.934;5.884;2022-11-18T02:13:04;29.80;;;22.37;;
56136;SDS011;42008;52.934;5.884;2022-11-18T02:29:53;52.13;;;33.83;;
56136;SDS011;42008;52.934;5.884;2022-11-18T02:32:23;59.20;;;36.80;;
56136;SDS011;42008;52.934;5.884;2022-11-18T02:37:34;70.80;;;40.70;;
56136;SDS011;42008;52.934;5.884;2022-11-18T02:40:15;73.67;;;41.47;;
56136;SDS011;42008;52.934;5.884;2022-11-18T02:42:48;74.87;;;41.83;;
56136;SDS011;42008;52.934;5.884;2022-11-18T02:45:17;75.07;;;42.63;;
56136;SDS011;42008;52.934;5.884;2022-11-18T02:47:45;82.00;;;43.07;;
56136;SDS011;42008;52.934;5.884;2022-11-18T02:50:14;85.33;;;44.33;;
56136;SDS011;42008;52.934;5.884;2022-11-18T02:52:43;91.27;;;47.40;;
56136;SDS011;42008;52.934;5.884;2022-11-18T02:55:11;86.20;;;46.27;;
56136;SDS011;42008;52.934;5.884;2022-11-18T02:57:38;103.20;;;47.27;;
56136;SDS011;42008;52.934;5.884;2022-11-18T03:00:06;89.33;;;46.33;;
56136;SDS011;42008;52.934;5.884;2022-11-18T03:02:42;89.13;;;46.87;;
56136;SDS011;42008;52.934;5.884;2022-11-18T03:05:17;92.63;;;45.57;;
56136;SDS011;42008;52.934;5.884;2022-11-18T03:08:08;88.60;;;44.63;;
56136;SDS011;42008;52.934;5.884;2022-11-18T03:10:39;87.77;;;44.57;;
56136;SDS011;42008;52.934;5.884;2022-11-18T03:13:18;90.47;;;44.50;;
56136;SDS011;42008;52.934;5.884;2022-11-18T03:18:26;83.40;;;44.33;;
56136;SDS011;42008;52.934;5.884;2022-11-18T03:20:59;93.60;;;45.23;;
56136;SDS011;42008;52.934;5.884;2022-11-18T03:23:31;84.10;;;43.63;;
56136;SDS011;42008;52.934;5.884;2022-11-18T03:26:11;94.97;;;46.17;;
56136;SDS011;42008;52.934;5.884;2022-11-18T03:28:47;84.17;;;44.17;;
56136;SDS011;42008;52.934;5.884;2022-11-18T03:31:38;82.73;;;42.23;;
56136;SDS011;42008;52.934;5.884;2022-11-18T03:34:16;83.40;;;42.63;;
56136;SDS011;42008;52.934;5.884;2022-11-18T03:36:47;86.40;;;42.93;;
56136;SDS011;42008;52.934;5.884;2022-11-18T03:39:17;81.70;;;43.47;;
56136;SDS011;42008;52.934;5.884;2022-11-18T03:41:48;74.80;;;42.30;;
56136;SDS011;42008;52.934;5.884;2022-11-18T03:44:20;78.97;;;42.00;;
56136;SDS011;42008;52.934;5.884;2022-11-18T03:46:58;79.63;;;43.40;;
56136;SDS011;42008;52.934;5.884;2022-11-18T03:49:30;80.70;;;42.27;;
56136;SDS011;42008;52.934;5.884;2022-11-18T03:52:33;76.40;;;40.90;;
56136;SDS011;42008;52.934;5.884;2022-11-18T03:54:54;80.37;;;43.67;;
56136;SDS011;42008;52.934;5.884;2022-11-18T03:57:24;77.70;;;42.27;;
56136;SDS011;42008;52.934;5.884;2022-11-18T04:00:06;80.13;;;43.67;;
56136;SDS011;42008;52.934;5.884;2022-11-18T04:02:34;75.00;;;41.65;;
56136;SDS011;42008;52.934;5.884;2022-11-18T04:05:02;75.73;;;42.67;;
56136;SDS011;42008;52.934;5.884;2022-11-18T04:07:31;74.57;;;41.83;;
56136;SDS011;42008;52.934;5.884;2022-11-18T04:12:43;79.57;;;42.50;;
56136;SDS011;42008;52.934;5.884;2022-11-18T04:15:12;72.57;;;41.43;;
56136;SDS011;42008;52.934;5.884;2022-11-18T04:17:39;74.17;;;42.47;;
56136;SDS011;42008;52.934;5.884;2022-11-18T04:20:08;81.07;;;42.70;;
56136;SDS011;42008;52.934;5.884;2022-11-18T04:22:44;76.97;;;41.37;;
56136;SDS011;42008;52.934;5.884;2022-11-18T04:25:09;73.33;;;42.03;;
56136;SDS011;42008;52.934;5.884;2022-11-18T04:27:35;66.30;;;40.47;;
56136;SDS011;42008;52.934;5.884;2022-11-18T04:30:01;69.57;;;40.67;;
56136;SDS011;42008;52.934;5.884;2022-11-18T04:32:27;71.90;;;41.07;;
56136;SDS011;42008;52.934;5.884;2022-11-18T04:34:53;70.70;;;41.70;;
56136;SDS011;42008;52.934;5.884;2022-11-18T04:37:19;67.67;;;41.00;;
56136;SDS011;42008;52.934;5.884;2022-11-18T04:39:45;66.50;;;41.43;;
56136;SDS011;42008;52.934;5.884;2022-11-18T04:42:10;69.40;;;41.47;;
56136;SDS011;42008;52.934;5.884;2022-11-18T04:44:36;64.73;;;40.83;;
56136;SDS011;42008;52.934;5.884;2022-11-18T04:47:02;64.60;;;41.13;;
56136;SDS011;42008;52.934;5.884;2022-11-18T04:49:29;61.50;;;40.43;;
56136;SDS011;42008;52.934;5.884;2022-11-18T04:51:55;61.27;;;39.07;;
56136;SDS011;42008;52.934;5.884;2022-11-18T04:54:22;66.03;;;40.80;;
56136;SDS011;42008;52.934;5.884;2022-11-18T04:56:48;64.17;;;40.67;;
56136;SDS011;42008;52.934;5.884;2022-11-18T04:59:15;60.37;;;39.30;;
56136;SDS011;42008;52.934;5.884;2022-11-18T05:01:43;67.03;;;40.33;;
56136;SDS011;42008;52.934;5.884;2022-11-18T05:04:11;64.37;;;40.07;;
56136;SDS011;42008;52.934;5.884;2022-11-18T05:06:38;62.87;;;40.50;;
56136;SDS011;42008;52.934;5.884;2022-11-18T05:09:04;67.43;;;41.93;;
56136;SDS011;42008;52.934;5.884;2022-11-18T05:11:29;63.83;;;39.00;;
56136;SDS011;42008;52.934;5.884;2022-11-18T05:14:15;63.67;;;39.53;;
56136;SDS011;42008;52.934;5.884;2022-11-18T05:16:40;66.37;;;40.57;;
56136;SDS011;42008;52.934;5.884;2022-11-18T05:19:06;59.77;;;39.90;;
56136;SDS011;42008;52.934;5.884;2022-11-18T05:21:32;63.53;;;40.13;;
56136;SDS011;42008;52.934;5.884;2022-11-18T05:23:58;63.33;;;40.27;;
56136;SDS011;42008;52.934;5.884;2022-11-18T05:26:24;63.60;;;38.73;;
56136;SDS011;42008;52.934;5.884;2022-11-18T05:28:50;61.60;;;38.70;;
56136;SDS011;42008;52.934;5.884;2022-11-18T05:31:16;61.67;;;39.23;;
56136;SDS011;42008;52.934;5.884;2022-11-18T05:33:42;61.33;;;39.47;;
56136;SDS011;42008;52.934;5.884;2022-11-18T05:36:13;63.43;;;38.27;;
56136;SDS011;42008;52.934;5.884;2022-11-18T05:38:40;63.73;;;39.83;;
56136;SDS011;42008;52.934;5.884;2022-11-18T05:41:06;58.97;;;39.27;;
56136;SDS011;42008;52.934;5.884;2022-11-18T05:43:33;66.63;;;38.87;;
56136;SDS011;42008;52.934;5.884;2022-11-18T05:45:59;57.93;;;39.63;;
56136;SDS011;42008;52.934;5.884;2022-11-18T05:48:25;58.43;;;37.60;;
56136;SDS011;42008;52.934;5.884;2022-11-18T05:50:51;59.77;;;38.37;;
56136;SDS011;42008;52.934;5.884;2022-11-18T05:53:19;62.60;;;39.23;;
56136;SDS011;42008;52.934;5.884;2022-11-18T05:55:48;60.97;;;38.87;;
56136;SDS011;42008;52.934;5.884;2022-11-18T05:58:31;66.07;;;39.87;;
56136;SDS011;42008;52.934;5.884;2022-11-18T06:00:57;62.13;;;39.97;;
56136;SDS011;42008;52.934;5.884;2022-11-18T06:03:28;66.30;;;41.07;;
56136;SDS011;42008;52.934;5.884;2022-11-18T06:05:56;57.40;;;38.00;;
56136;SDS011;42008;52.934;5.884;2022-11-18T06:08:24;59.80;;;39.07;;
56136;SDS011;42008;52.934;5.884;2022-11-18T06:24:50;63.33;;;42.27;;
56136;SDS011;42008;52.934;5.884;2022-11-18T06:27:16;61.40;;;40.33;;
56136;SDS011;42008;52.934;5.884;2022-11-18T06:29:42;69.33;;;41.07;;
56136;SDS011;42008;52.934;5.884;2022-11-18T06:32:08;62.57;;;40.13;;
56136;SDS011;42008;52.934;5.884;2022-11-18T06:34:33;61.63;;;40.90;;
56136;SDS011;42008;52.934;5.884;2022-11-18T06:36:59;60.30;;;38.63;;
56136;SDS011;42008;52.934;5.884;2022-11-18T06:39:24;59.40;;;38.73;;
56136;SDS011;42008;52.934;5.884;2022-11-18T06:41:53;63.47;;;38.93;;
56136;SDS011;42008;52.934;5.884;2022-11-18T06:44:18;60.60;;;39.03;;
56136;SDS011;42008;52.934;5.884;2022-11-18T06:46:44;58.83;;;37.13;;
56136;SDS011;42008;52.934;5.884;2022-11-18T06:49:22;60.63;;;37.53;;
56136;SDS011;42008;52.934;5.884;2022-11-18T06:51:49;62.90;;;38.23;;
56136;SDS011;42008;52.934;5.884;2022-11-18T06:54:15;62.33;;;39.33;;
56136;SDS011;42008;52.934;5.884;2022-11-18T06:56:41;64.43;;;37.27;;
56136;SDS011;42008;52.934;5.884;2022-11-18T06:59:07;64.80;;;39.40;;
56136;SDS011;42008;52.934;5.884;2022-11-18T07:01:33;63.97;;;40.33;;
56136;SDS011;42008;52.934;5.884;2022-11-18T07:04:00;62.83;;;38.67;;
56136;SDS011;42008;52.934;5.884;2022-11-18T07:06:27;62.73;;;38.43;;
56136;SDS011;42008;52.934;5.884;2022-11-18T07:08:55;63.93;;;39.27;;
56136;SDS011;42008;52.934;5.884;2022-11-18T07:11:24;63.53;;;37.07;;
56136;SDS011;42008;52.934;5.884;2022-11-18T07:13:50;66.50;;;37.90;;
56136;SDS011;42008;52.934;5.884;2022-11-18T07:16:17;68.90;;;38.30;;
56136;SDS011;42008;52.934;5.884;2022-11-18T07:18:45;70.57;;;37.97;;
56136;SDS011;42008;52.934;5.884;2022-11-18T07:21:13;65.30;;;38.13;;
56136;SDS011;42008;52.934;5.884;2022-11-18T07:23:43;61.27;;;37.63;;
56136;SDS011;42008;52.934;5.884;2022-11-18T07:26:09;60.50;;;37.07;;
56136;SDS011;42008;52.934;5.884;2022-11-18T07:28:36;63.30;;;37.83;;
56136;SDS011;42008;52.934;5.884;2022-11-18T07:33:28;64.03;;;37.57;;
56136;SDS011;42008;52.934;5.884;2022-11-18T07:35:54;67.47;;;39.57;;
56136;SDS011;42008;52.934;5.884;2022-11-18T07:38:20;67.97;;;39.80;;
56136;SDS011;42008;52.934;5.884;2022-11-18T07:40:45;68.07;;;38.37;;
56136;SDS011;42008;52.934;5.884;2022-11-18T07:43:11;67.40;;;39.33;;
56136;SDS011;42008;52.934;5.884;2022-11-18T07:45:36;66.10;;;40.37;;
56136;SDS011;42008;52.934;5.884;2022-11-18T07:48:02;66.07;;;39.40;;
56136;SDS011;42008;52.934;5.884;2022-11-18T07:50:27;68.20;;;38.83;;
56136;SDS011;42008;52.934;5.884;2022-11-18T07:52:56;68.17;;;39.47;;
56136;SDS011;42008;52.934;5.884;2022-11-18T07:55:22;58.53;;;37.70;;
56136;SDS011;42008;52.934;5.884;2022-11-18T07:57:48;65.47;;;39.20;;
56136;SDS011;42008;52.934;5.884;2022-11-18T08:00:13;63.13;;;39.13;;
56136;SDS011;42008;52.934;5.884;2022-11-18T08:02:39;68.93;;;38.50;;
56136;SDS011;42008;52.934;5.884;2022-11-18T08:05:05;66.77;;;39.27;;
56136;SDS011;42008;52.934;5.884;2022-11-18T08:07:31;61.13;;;37.13;;
56136;SDS011;42008;52.934;5.884;2022-11-18T08:09:56;64.43;;;37.13;;
56136;SDS011;42008;52.934;5.884;2022-11-18T08:12:22;62.20;;;36.93;;
56136;SDS011;42008;52.934;5.884;2022-11-18T08:14:47;56.40;;;37.00;;
56136;SDS011;42008;52.934;5.884;2022-11-18T08:17:13;57.73;;;35.30;;
56136;SDS011;42008;52.934;5.884;2022-11-18T08:19:38;54.97;;;35.00;;
56136;SDS011;42008;52.934;5.884;2022-11-18T08:22:04;57.90;;;35.13;;
56136;SDS011;42008;52.934;5.884;2022-11-18T08:24:29;49.17;;;33.60;;
56136;SDS011;42008;52.934;5.884;2022-11-18T08:26:55;56.37;;;34.47;;
56136;SDS011;42008;52.934;5.884;2022-11-18T08:29:21;55.87;;;33.87;;
56136;SDS011;42008;52.934;5.884;2022-11-18T08:31:46;59.03;;;33.40;;
56136;SDS011;42008;52.934;5.884;2022-11-18T08:34:12;53.17;;;32.50;;
56136;SDS011;42008;52.934;5.884;2022-11-18T08:36:37;53.63;;;32.07;;
56136;SDS011;42008;52.934;5.884;2022-11-18T08:39:05;53.73;;;32.97;;
56136;SDS011;42008;52.934;5.884;2022-11-18T08:43:59;46.87;;;30.63;;
56136;SDS011;42008;52.934;5.884;2022-11-18T08:46:25;47.87;;;30.83;;
56136;SDS011;42008;52.934;5.884;2022-11-18T08:48:51;43.93;;;28.63;;
56136;SDS011;42008;52.934;5.884;2022-11-18T08:51:17;41.43;;;28.33;;
56136;SDS011;42008;52.934;5.884;2022-11-18T08:53:42;42.67;;;28.50;;
56136;SDS011;42008;52.934;5.884;2022-11-18T08:56:11;40.87;;;27.37;;
56136;SDS011;42008;52.934;5.884;2022-11-18T08:58:40;50.33;;;27.70;;
56136;SDS011;42008;52.934;5.884;2022-11-18T09:01:06;40.57;;;26.37;;
56136;SDS011;42008;52.934;5.884;2022-11-18T09:03:32;40.23;;;26.13;;
56136;SDS011;42008;52.934;5.884;2022-11-18T09:06:14;41.47;;;26.63;;
56136;SDS011;42008;52.934;5.884;2022-11-18T09:08:44;37.83;;;26.17;;
56136;SDS011;42008;52.934;5.884;2022-11-18T09:11:11;41.53;;;25.27;;
56136;SDS011;42008;52.934;5.884;2022-11-18T09:13:38;34.20;;;23.63;;
56136;SDS011;42008;52.934;5.884;2022-11-18T09:16:04;36.00;;;24.50;;
56136;SDS011;42008;52.934;5.884;2022-11-18T09:18:31;32.20;;;23.17;;
56136;SDS011;42008;52.934;5.884;2022-11-18T09:20:58;37.70;;;24.17;;
56136;SDS011;42008;52.934;5.884;2022-11-18T09:23:25;36.87;;;24.20;;
56136;SDS011;42008;52.934;5.884;2022-11-18T09:26:01;36.70;;;23.67;;
56136;SDS011;42008;52.934;5.884;2022-11-18T09:28:28;38.63;;;24.00;;
56136;SDS011;42008;52.934;5.884;2022-11-18T09:30:54;40.53;;;27.13;;
56136;SDS011;42008;52.934;5.884;2022-11-18T09:33:20;44.33;;;24.27;;
56136;SDS011;42008;52.934;5.884;2022-11-18T09:35:46;34.97;;;24.03;;
56136;SDS011;42008;52.934;5.884;2022-11-18T09:38:12;37.93;;;23.57;;
56136;SDS011;42008;52.934;5.884;2022-11-18T09:43:28;37.53;;;23.10;;
56136;SDS011;42008;52.934;5.884;2022-11-18T09:46:27;35.37;;;23.03;;
56136;SDS011;42008;52.934;5.884;2022-11-18T09:49:24;35.67;;;22.13;;
56136;SDS011;42008;52.934;5.884;2022-11-18T09:51:52;38.50;;;23.60;;
56136;SDS011;42008;52.934;5.884;2022-11-18T09:54:20;33.67;;;22.83;;
56136;SDS011;42008;52.934;5.884;2022-11-18T09:56:51;32.23;;;21.70;;
56136;SDS011;42008;52.934;5.884;2022-11-18T09:59:20;35.03;;;22.00;;
56136;SDS011;42008;52.934;5.884;2022-11-18T10:01:51;33.60;;;21.27;;
56136;SDS011;42008;52.934;5.884;2022-11-18T10:04:20;42.07;;;21.93;;
56136;SDS011;42008;52.934;5.884;2022-11-18T10:06:46;33.63;;;21.17;;
56136;SDS011;42008;52.934;5.884;2022-11-18T10:15:21;31.03;;;20.17;;
56136;SDS011;42008;52.934;5.884;2022-11-18T10:18:03;32.33;;;20.67;;
56136;SDS011;42008;52.934;5.884;2022-11-18T10:20:49;26.05;;;19.83;;
56136;SDS011;42008;52.934;5.884;2022-11-18T10:23:34;26.50;;;19.53;;
56136;SDS011;42008;52.934;5.884;2022-11-18T10:26:30;25.70;;;18.43;;
56136;SDS011;42008;52.934;5.884;2022-11-18T10:29:03;28.20;;;20.43;;
56136;SDS011;42008;52.934;5.884;2022-11-18T10:31:34;27.47;;;20.13;;
56136;SDS011;42008;52.934;5.884;2022-11-18T10:34:01;26.13;;;19.37;;
56136;SDS011;42008;52.934;5.884;2022-11-18T10:36:28;27.20;;;19.17;;
56136;SDS011;42008;52.934;5.884;2022-11-18T10:39:06;29.93;;;19.27;;
56136;SDS011;42008;52.934;5.884;2022-11-18T10:41:40;29.37;;;19.83;;
56136;SDS011;42008;52.934;5.884;2022-11-18T10:49:48;28.47;;;18.13;;
56136;SDS011;42008;52.934;5.884;2022-11-18T10:52:18;23.83;;;18.13;;
56136;SDS011;42008;52.934;5.884;2022-11-18T10:54:44;27.20;;;18.47;;
56136;SDS011;42008;52.934;5.884;2022-11-18T11:05:21;23.83;;;16.57;;
56136;SDS011;42008;52.934;5.884;2022-11-18T11:08:00;26.10;;;17.30;;
56136;SDS011;42008;52.934;5.884;2022-11-18T11:10:27;24.43;;;16.03;;
56136;SDS011;42008;52.934;5.884;2022-11-18T11:12:58;22.90;;;17.10;;
56136;SDS011;42008;52.934;5.884;2022-11-18T11:18:28;23.07;;;16.43;;
56136;SDS011;42008;52.934;5.884;2022-11-18T11:23:42;21.60;;;15.43;;
56136;SDS011;42008;52.934;5.884;2022-11-18T11:26:12;22.80;;;16.27;;
56136;SDS011;42008;52.934;5.884;2022-11-18T11:35:20;23.37;;;16.57;;
56136;SDS011;42008;52.934;5.884;2022-11-18T11:37:54;21.20;;;14.60;;
56136;SDS011;42008;52.934;5.884;2022-11-18T11:51:53;23.37;;;14.77;;
56136;SDS011;42008;52.934;5.884;2022-11-18T11:57:15;18.63;;;13.63;;
56136;SDS011;42008;52.934;5.884;2022-11-18T12:00:04;22.50;;;13.47;;
56136;SDS011;42008;52.934;5.884;2022-11-18T12:07:55;22.43;;;13.43;;
56136;SDS011;42008;52.934;5.884;2022-11-18T12:19:17;23.40;;;15.07;;
56136;SDS011;42008;52.934;5.884;2022-11-18T12:24:52;22.53;;;14.97;;
56136;SDS011;42008;52.934;5.884;2022-11-18T12:35:01;23.67;;;15.00;;
56136;SDS011;42008;52.934;5.884;2022-11-18T12:48:55;27.60;;;15.67;;
56136;SDS011;42008;52.934;5.884;2022-11-18T12:53:48;26.90;;;16.97;;
56136;SDS011;42008;52.934;5.884;2022-11-18T12:58:45;25.77;;;16.33;;
56136;SDS011;42008;52.934;5.884;2022-11-18T13:01:16;26.47;;;16.67;;
56136;SDS011;42008;52.934;5.884;2022-11-18T13:03:44;23.77;;;15.80;;
56136;SDS011;42008;52.934;5.884;2022-11-18T13:06:24;23.27;;;15.43;;
56136;SDS011;42008;52.934;5.884;2022-11-18T13:09:02;25.50;;;16.97;;
56136;SDS011;42008;52.934;5.884;2022-11-18T13:11:40;23.23;;;15.47;;
56136;SDS011;42008;52.934;5.884;2022-11-18T13:14:24;24.00;;;14.97;;
56136;SDS011;42008;52.934;5.884;2022-11-18T13:17:28;23.63;;;15.80;;
56136;SDS011;42008;52.934;5.884;2022-11-18T13:20:25;23.80;;;15.67;;
56136;SDS011;42008;52.934;5.884;2022-11-18T13:23:22;23.97;;;16.00;;
56136;SDS011;42008;52.934;5.884;2022-11-18T13:26:05;22.93;;;16.30;;
56136;SDS011;42008;52.934;5.884;2022-11-18T13:28:58;22.73;;;15.20;;
56136;SDS011;42008;52.934;5.884;2022-11-18T13:31:39;18.50;;;13.10;;
56136;SDS011;42008;52.934;5.884;2022-11-18T13:34:56;22.30;;;12.80;;
56136;SDS011;42008;52.934;5.884;2022-11-18T13:37:28;17.30;;;11.97;;
56136;SDS011;42008;52.934;5.884;2022-11-18T13:39:55;17.57;;;11.40;;
56136;SDS011;42008;52.934;5.884;2022-11-18T13:42:22;15.70;;;11.40;;
56136;SDS011;42008;52.934;5.884;2022-11-18T13:44:53;16.97;;;11.47;;
56136;SDS011;42008;52.934;5.884;2022-11-18T13:50:37;18.80;;;11.77;;
56136;SDS011;42008;52.934;5.884;2022-11-18T13:53:33;18.10;;;11.07;;
56136;SDS011;42008;52.934;5.884;2022-11-18T14:01:04;19.30;;;11.17;;
56136;SDS011;42008;52.934;5.884;2022-11-18T14:06:31;20.13;;;11.10;;
56136;SDS011;42008;52.934;5.884;2022-11-18T14:12:24;20.80;;;12.50;;
56136;SDS011;42008;52.934;5.884;2022-11-18T14:14:44;17.73;;;12.47;;
56136;SDS011;42008;52.934;5.884;2022-11-18T14:17:18;18.63;;;12.33;;
56136;SDS011;42008;52.934;5.884;2022-11-18T14:19:44;22.20;;;13.63;;
56136;SDS011;42008;52.934;5.884;2022-11-18T14:22:15;18.83;;;12.30;;
56136;SDS011;42008;52.934;5.884;2022-11-18T14:24:43;19.80;;;13.10;;
56136;SDS011;42008;52.934;5.884;2022-11-18T14:33:02;23.37;;;13.93;;
56136;SDS011;42008;52.934;5.884;2022-11-18T14:35:34;23.80;;;14.33;;
56136;SDS011;42008;52.934;5.884;2022-11-18T14:37:59;23.23;;;15.33;;
56136;SDS011;42008;52.934;5.884;2022-11-18T14:40:25;23.53;;;14.70;;
56136;SDS011;42008;52.934;5.884;2022-11-18T14:42:51;25.00;;;15.80;;
56136;SDS011;42008;52.934;5.884;2022-11-18T14:45:16;21.50;;;14.13;;
56136;SDS011;42008;52.934;5.884;2022-11-18T14:47:42;26.53;;;15.13;;
56136;SDS011;42008;52.934;5.884;2022-11-18T14:50:11;22.87;;;14.53;;
56136;SDS011;42008;52.934;5.884;2022-11-18T14:52:38;24.80;;;16.13;;
56136;SDS011;42008;52.934;5.884;2022-11-18T14:55:03;26.97;;;16.20;;
56136;SDS011;42008;52.934;5.884;2022-11-18T14:57:29;24.80;;;16.57;;
56136;SDS011;42008;52.934;5.884;2022-11-18T14:59:55;28.40;;;15.93;;
56136;SDS011;42008;52.934;5.884;2022-11-18T15:02:20;28.80;;;17.37;;
56136;SDS011;42008;52.934;5.884;2022-11-18T15:04:46;26.10;;;16.70;;
56136;SDS011;42008;52.934;5.884;2022-11-18T15:07:12;29.37;;;16.83;;
56136;SDS011;42008;52.934;5.884;2022-11-18T15:09:39;26.27;;;16.53;;
56136;SDS011;42008;52.934;5.884;2022-11-18T15:12:05;27.17;;;17.03;;
56136;SDS011;42008;52.934;5.884;2022-11-18T15:14:31;27.03;;;16.37;;
56136;SDS011;42008;52.934;5.884;2022-11-18T15:16:56;28.67;;;16.77;;
56136;SDS011;42008;52.934;5.884;2022-11-18T15:19:22;26.70;;;16.87;;
56136;SDS011;42008;52.934;5.884;2022-11-18T15:21:47;27.07;;;17.90;;
56136;SDS011;42008;52.934;5.884;2022-11-18T15:24:13;26.33;;;16.33;;
56136;SDS011;42008;52.934;5.884;2022-11-18T15:26:40;28.63;;;17.50;;
56136;SDS011;42008;52.934;5.884;2022-11-18T15:29:10;28.67;;;18.17;;
56136;SDS011;42008;52.934;5.884;2022-11-18T15:31:46;27.63;;;17.37;;
56136;SDS011;42008;52.934;5.884;2022-11-18T15:34:12;31.20;;;18.27;;
56136;SDS011;42008;52.934;5.884;2022-11-18T15:36:38;31.60;;;18.47;;
56136;SDS011;42008;52.934;5.884;2022-11-18T15:39:04;32.70;;;18.07;;
56136;SDS011;42008;52.934;5.884;2022-11-18T15:41:30;29.37;;;18.63;;
56136;SDS011;42008;52.934;5.884;2022-11-18T15:43:57;30.97;;;19.07;;
56136;SDS011;42008;52.934;5.884;2022-11-18T15:46:25;28.07;;;16.43;;
56136;SDS011;42008;52.934;5.884;2022-11-18T15:48:55;25.20;;;16.23;;
56136;SDS011;42008;52.934;5.884;2022-11-18T15:51:22;24.57;;;16.17;;
56136;SDS011;42008;52.934;5.884;2022-11-18T15:53:49;25.90;;;15.97;;
56136;SDS011;42008;52.934;5.884;2022-11-18T15:58:54;27.87;;;17.20;;
56136;SDS011;42008;52.934;5.884;2022-11-18T16:01:26;32.00;;;21.27;;
56136;SDS011;42008;52.934;5.884;2022-11-18T16:03:56;30.17;;;18.17;;
56136;SDS011;42008;52.934;5.884;2022-11-18T16:06:22;33.00;;;18.20;;
56136;SDS011;42008;52.934;5.884;2022-11-18T16:08:49;26.23;;;16.73;;
56136;SDS011;42008;52.934;5.884;2022-11-18T16:11:15;36.13;;;17.27;;
56136;SDS011;42008;52.934;5.884;2022-11-18T16:14:00;29.57;;;17.10;;
56136;SDS011;42008;52.934;5.884;2022-11-18T16:16:30;25.53;;;16.37;;
56136;SDS011;42008;52.934;5.884;2022-11-18T16:18:57;26.07;;;16.23;;
56136;SDS011;42008;52.934;5.884;2022-11-18T16:21:27;26.43;;;15.43;;
56136;SDS011;42008;52.934;5.884;2022-11-18T16:23:56;23.30;;;16.03;;
56136;SDS011;42008;52.934;5.884;2022-11-18T16:26:23;27.10;;;16.50;;
56136;SDS011;42008;52.934;5.884;2022-11-18T16:28:49;28.37;;;17.27;;
56136;SDS011;42008;52.934;5.884;2022-11-18T16:31:15;26.77;;;16.67;;
56136;SDS011;42008;52.934;5.884;2022-11-18T16:34:03;25.87;;;15.67;;
56136;SDS011;42008;52.934;5.884;2022-11-18T16:36:30;27.37;;;16.80;;
56136;SDS011;42008;52.934;5.884;2022-11-18T16:38:55;24.67;;;16.30;;
56136;SDS011;42008;52.934;5.884;2022-11-18T16:41:22;32.27;;;18.60;;
56136;SDS011;42008;52.934;5.884;2022-11-18T16:43:56;30.33;;;17.97;;
56136;SDS011;42008;52.934;5.884;2022-11-18T16:46:28;29.53;;;17.80;;
56136;SDS011;42008;52.934;5.884;2022-11-18T16:48:55;30.03;;;17.93;;
56136;SDS011;42008;52.934;5.884;2022-11-18T16:51:22;25.70;;;15.83;;
56136;SDS011;42008;52.934;5.884;2022-11-18T16:53:55;24.93;;;17.30;;
56136;SDS011;42008;52.934;5.884;2022-11-18T16:56:23;28.10;;;17.97;;
56136;SDS011;42008;52.934;5.884;2022-11-18T16:58:54;28.47;;;18.07;;
56136;SDS011;42008;52.934;5.884;2022-11-18T17:01:22;27.38;;;17.42;;
56136;SDS011;42008;52.934;5.884;2022-11-18T17:03:51;27.67;;;18.13;;
56136;SDS011;42008;52.934;5.884;2022-11-18T17:06:18;27.17;;;17.50;;
56136;SDS011;42008;52.934;5.884;2022-11-18T17:08:45;26.77;;;17.17;;
56136;SDS011;42008;52.934;5.884;2022-11-18T17:11:11;25.70;;;16.83;;
56136;SDS011;42008;52.934;5.884;2022-11-18T17:13:37;27.03;;;17.00;;